N805AB -KMCO
Flight info
| Callsign | N805AB |
|---|---|
| Flight time | N/A |
| Altitude | VFR |
| Route | |
| Aircraft |
Departure
| Time | N/A |
|---|---|
| Airport | - |
Arrival
| Time | 2026-05-05 01:36 |
|---|---|
| Airport | Orlando International Airport (KMCO) |
| Time | Latitude | Longitude | Altitude | Speed | Heading |
|---|---|---|---|---|---|
| 2026-05-05 01:21 | 28.32472 | -80.94747 | 8334 ft | 244 kts | 178° |
| 2026-05-05 01:21 | 28.30825 | -80.94602 | 8871 ft | 234 kts | 178° |
| 2026-05-05 01:22 | 28.29154 | -80.94456 | 8941 ft | 245 kts | 178° |
| 2026-05-05 01:22 | 28.27432 | -80.94311 | 9036 ft | 252 kts | 178° |
| 2026-05-05 01:22 | 28.25683 | -80.94171 | 9258 ft | 251 kts | 179° |
| 2026-05-05 01:22 | 28.23949 | -80.94158 | 9558 ft | 247 kts | 184° |
| 2026-05-05 01:23 | 28.22242 | -80.94220 | 9864 ft | 245 kts | 185° |
| 2026-05-05 01:23 | 28.20562 | -80.94296 | 10159 ft | 243 kts | 185° |
| 2026-05-05 01:23 | 28.18887 | -80.94396 | 10505 ft | 240 kts | 186° |
| 2026-05-05 01:23 | 28.17229 | -80.94522 | 10814 ft | 239 kts | 186° |
| 2026-05-05 01:24 | 28.15553 | -80.94664 | 11015 ft | 243 kts | 187° |
| 2026-05-05 01:24 | 28.13918 | -80.95134 | 11116 ft | 246 kts | 207° |
| 2026-05-05 01:24 | 28.12513 | -80.96258 | 11167 ft | 250 kts | 225° |
| 2026-05-05 01:24 | 28.11314 | -80.97711 | 11223 ft | 254 kts | 230° |
| 2026-05-05 01:25 | 28.10463 | -80.99454 | 11274 ft | 256 kts | 252° |
| 2026-05-05 01:25 | 28.10099 | -81.01431 | 11314 ft | 259 kts | 261° |
| 2026-05-05 01:25 | 28.09833 | -81.03464 | 11271 ft | 264 kts | 262° |
| 2026-05-05 01:25 | 28.09579 | -81.05521 | 11117 ft | 271 kts | 262° |
| 2026-05-05 01:26 | 28.09318 | -81.07656 | 10951 ft | 276 kts | 262° |
| 2026-05-05 01:26 | 28.09060 | -81.09812 | 10903 ft | 274 kts | 262° |
| 2026-05-05 01:26 | 28.08828 | -81.11859 | 10878 ft | 246 kts | 263° |
| 2026-05-05 01:26 | 28.08628 | -81.13692 | 10569 ft | 229 kts | 263° |
| 2026-05-05 01:27 | 28.08423 | -81.15474 | 9908 ft | 230 kts | 262° |
| 2026-05-05 01:27 | 28.08204 | -81.17303 | 8924 ft | 239 kts | 262° |
| 2026-05-05 01:27 | 28.07994 | -81.19074 | 8094 ft | 209 kts | 262° |
| 2026-05-05 01:27 | 28.07808 | -81.20645 | 6710 ft | 201 kts | 262° |
| 2026-05-05 01:28 | 28.07612 | -81.22277 | 5341 ft | 204 kts | 262° |
| 2026-05-05 01:28 | 28.07737 | -81.23668 | 5064 ft | 167 kts | 294° |
| 2026-05-05 01:28 | 28.08543 | -81.24612 | 4446 ft | 176 kts | 323° |
| 2026-05-05 01:28 | 28.09563 | -81.25468 | 3944 ft | 187 kts | 324° |
| 2026-05-05 01:29 | 28.10603 | -81.26372 | 3579 ft | 187 kts | 323° |
| 2026-05-05 01:29 | 28.11593 | -81.27261 | 3405 ft | 177 kts | 323° |
| 2026-05-05 01:29 | 28.12508 | -81.28081 | 3323 ft | 164 kts | 324° |
| 2026-05-05 01:29 | 28.13433 | -81.28832 | 3086 ft | 163 kts | 327° |
| 2026-05-05 01:30 | 28.14429 | -81.29629 | 2993 ft | 188 kts | 327° |
| 2026-05-05 01:30 | 28.15547 | -81.30524 | 2917 ft | 204 kts | 327° |
| 2026-05-05 01:30 | 28.16748 | -81.31480 | 2773 ft | 218 kts | 328° |
| 2026-05-05 01:30 | 28.18063 | -81.32385 | 2652 ft | 222 kts | 341° |
| 2026-05-05 01:31 | 28.19551 | -81.32721 | 2639 ft | 217 kts | 0° |
| 2026-05-05 01:31 | 28.21040 | -81.32791 | 2705 ft | 212 kts | 2° |
| 2026-05-05 01:31 | 28.22515 | -81.32818 | 2724 ft | 212 kts | 4° |
| 2026-05-05 01:31 | 28.24002 | -81.32759 | 2611 ft | 217 kts | 7° |
| 2026-05-05 01:32 | 28.25533 | -81.32652 | 2234 ft | 231 kts | 8° |
| 2026-05-05 01:32 | 28.27145 | -81.32549 | 2003 ft | 232 kts | 7° |
| 2026-05-05 01:32 | 28.28760 | -81.32523 | 1805 ft | 233 kts | 3° |
| 2026-05-05 01:32 | 28.30354 | -81.32568 | 1817 ft | 223 kts | 2° |
| 2026-05-05 01:33 | 28.31891 | -81.32621 | 1768 ft | 221 kts | 3° |
| 2026-05-05 01:33 | 28.33370 | -81.32603 | 1680 ft | 187 kts | 5° |
| 2026-05-05 01:33 | 28.34488 | -81.32617 | 1577 ft | 142 kts | 5° |
| 2026-05-05 01:33 | 28.35417 | -81.32649 | 1274 ft | 131 kts | 4° |
| 2026-05-05 01:34 | 28.36265 | -81.32658 | 1132 ft | 116 kts | 6° |
| 2026-05-05 01:34 | 28.37042 | -81.32644 | 985 ft | 107 kts | 9° |
| 2026-05-05 01:34 | 28.37780 | -81.32619 | 876 ft | 111 kts | 6° |
| 2026-05-05 01:34 | 28.38633 | -81.32634 | 797 ft | 133 kts | 3° |
| 2026-05-05 01:35 | 28.39518 | -81.32657 | 619 ft | 121 kts | 6° |
| 2026-05-05 01:35 | 28.40318 | -81.32655 | 403 ft | 111 kts | 4° |
| 2026-05-05 01:35 | 28.41079 | -81.32665 | 262 ft | 106 kts | 5° |
| 2026-05-05 01:35 | 28.41771 | -81.32669 | 110 ft | 92 kts | 4° |
| 2026-05-05 01:36 | 28.42334 | -81.32670 | 97 ft | 63 kts | 360° |
| 2026-05-05 01:36 | 28.42618 | -81.32707 | 97 ft | 29 kts | 323° |
| 2026-05-05 01:36 | 28.42652 | -81.32834 | 98 ft | 16 kts | 271° |
| 2026-05-05 01:36 | 28.42637 | -81.32951 | 97 ft | 14 kts | 212° |
| 2026-05-05 01:37 | 28.42558 | -81.32950 | 96 ft | 13 kts | 175° |
| 2026-05-05 01:37 | 28.42450 | -81.32940 | 94 ft | 18 kts | 176° |